createdAt,value
2022-08-05T00:01:00.935Z,27.70
2022-08-05T00:06:29.053Z,27.65
2022-08-05T00:11:35.205Z,27.76
2022-08-05T00:16:52.793Z,27.72
2022-08-05T00:21:55.213Z,27.81
2022-08-05T00:26:56.739Z,27.74
2022-08-05T00:32:12.634Z,27.72
2022-08-05T00:37:16.116Z,27.83
2022-08-05T00:42:32.095Z,27.76
2022-08-05T00:47:56.870Z,27.72
2022-08-05T00:52:55.487Z,27.72
2022-08-05T00:57:59.076Z,27.78
2022-08-05T01:03:00.896Z,27.76
2022-08-05T01:08:40.291Z,27.78
2022-08-05T01:13:57.795Z,27.76
2022-08-05T01:19:15.782Z,27.75
2022-08-05T01:24:41.599Z,27.71
2022-08-05T01:29:46.490Z,27.72
2022-08-05T01:34:51.324Z,27.86
2022-08-05T01:39:59.045Z,27.69
2022-08-05T01:45:02.366Z,27.71
2022-08-05T01:50:05.970Z,27.80
2022-08-05T01:55:09.368Z,27.82
2022-08-05T02:00:11.891Z,27.75
2022-08-05T02:05:13.733Z,27.70
2022-08-05T02:10:17.426Z,27.69
2022-08-05T02:15:24.960Z,27.83
2022-08-05T02:20:49.621Z,27.80
2022-08-05T02:25:51.697Z,27.82
2022-08-05T02:30:56.811Z,27.81
2022-08-05T02:36:01.105Z,27.72
2022-08-05T02:41:06.410Z,27.72
2022-08-05T02:46:18.460Z,27.78
2022-08-05T02:52:02.708Z,27.76
2022-08-05T02:56:50.353Z,27.75
2022-08-05T03:01:52.150Z,27.76
2022-08-05T03:06:59.549Z,27.79
2022-08-05T03:12:01.855Z,27.68
2022-08-05T03:17:07.338Z,27.72
2022-08-05T03:22:16.656Z,27.72
2022-08-05T03:27:20.660Z,27.67
2022-08-05T03:32:22.162Z,27.77
2022-08-05T03:37:40.961Z,27.83
2022-08-05T03:42:52.458Z,27.75
2022-08-05T03:47:56.878Z,27.72
2022-08-05T03:55:51.581Z,27.71
2022-08-05T03:58:29.362Z,27.74
2022-08-05T04:03:35.750Z,27.68
2022-08-05T04:08:39.638Z,27.75
2022-08-05T04:13:49.756Z,27.67
2022-08-05T04:18:54.648Z,27.68
2022-08-05T04:24:06.369Z,27.72
2022-08-05T04:29:10.286Z,27.69
2022-08-05T04:34:31.383Z,27.72
2022-08-05T04:39:33.429Z,27.69
2022-08-05T04:44:37.013Z,27.69
2022-08-05T04:50:01.659Z,27.67
2022-08-05T04:55:02.375Z,27.68
2022-08-05T05:00:16.406Z,27.70
2022-08-05T05:05:28.335Z,27.69
2022-08-05T05:10:33.281Z,27.75
2022-08-05T05:15:56.253Z,27.72
2022-08-05T05:20:56.534Z,27.68
2022-08-05T05:25:59.960Z,27.67
2022-08-05T05:31:02.197Z,27.65
2022-08-05T05:36:07.278Z,27.65
2022-08-05T05:41:08.684Z,27.64
2022-08-05T05:46:17.564Z,27.69
2022-08-05T05:51:24.558Z,27.63
2022-08-05T05:56:32.306Z,27.72
2022-08-05T06:01:39.727Z,27.72
2022-08-05T06:06:47.493Z,27.69
2022-08-05T06:11:59.126Z,27.72
2022-08-05T06:17:02.001Z,27.77
2022-08-05T06:22:27.102Z,27.87
2022-08-05T06:28:12.248Z,27.94
2022-08-05T06:32:50.843Z,27.92
2022-08-05T06:37:57.778Z,28.00
2022-08-05T06:43:00.408Z,28.10
2022-08-05T06:48:44.336Z,28.09
2022-08-05T06:53:28.505Z,28.08
2022-08-05T06:58:36.223Z,28.11
2022-08-05T07:03:38.209Z,28.24
2022-08-05T07:08:39.680Z,28.22
2022-08-05T07:14:02.211Z,28.15
2022-08-05T07:19:04.035Z,28.25
2022-08-05T07:24:05.669Z,28.21
2022-08-05T07:29:12.909Z,28.23
2022-08-05T07:34:14.335Z,28.27
2022-08-05T07:39:50.369Z,28.26
2022-08-05T07:44:44.177Z,28.25
2022-08-05T07:49:54.572Z,28.24
2022-08-05T07:54:56.229Z,28.29
2022-08-05T07:59:57.641Z,28.40
2022-08-05T08:04:59.243Z,28.45
2022-08-05T08:10:01.031Z,28.42
2022-08-05T08:15:03.649Z,28.41
2022-08-05T08:20:23.402Z,28.42
2022-08-05T08:26:00.826Z,28.43
2022-08-05T08:30:52.416Z,28.44
2022-08-05T08:36:07.814Z,28.45
2022-08-05T08:41:15.274Z,28.44
2022-08-05T08:46:19.449Z,28.43
2022-08-05T08:52:01.875Z,28.43
2022-08-05T08:56:47.812Z,28.47
2022-08-05T09:01:57.575Z,28.51
2022-08-05T09:07:02.631Z,28.55
2022-08-05T09:12:30.231Z,28.50
2022-08-05T09:17:40.698Z,28.53
2022-08-05T09:23:19.205Z,28.58
2022-08-05T09:28:31.876Z,28.51
2022-08-05T09:33:50.907Z,28.55
2022-08-05T09:38:56.690Z,28.52
2022-08-05T09:43:58.746Z,28.51
2022-08-05T09:49:07.368Z,28.59
2022-08-05T09:54:29.501Z,28.59
2022-08-05T09:59:35.082Z,28.52
2022-08-05T10:04:40.836Z,28.52
2022-08-05T10:10:00.280Z,28.55
2022-08-05T10:15:25.583Z,28.50
2022-08-05T10:20:27.376Z,28.55
2022-08-05T10:25:28.905Z,28.61
2022-08-05T10:31:20.448Z,28.61
2022-08-05T10:36:00.000Z,28.63
2022-08-05T10:41:23.251Z,28.62
2022-08-05T10:46:25.129Z,28.64
2022-08-05T10:51:29.325Z,28.64
2022-08-05T10:56:36.465Z,28.61
2022-08-05T11:01:55.068Z,28.64
2022-08-05T11:07:04.728Z,28.54
2022-08-05T11:12:27.117Z,28.60
2022-08-05T11:17:58.650Z,28.60
2022-08-05T11:22:58.063Z,28.68
2022-08-05T11:28:09.310Z,28.54
2022-08-05T11:33:44.060Z,28.50
2022-08-05T11:38:51.734Z,28.51
2022-08-05T11:44:06.292Z,28.56
2022-08-05T11:49:13.265Z,28.47
2022-08-05T11:54:20.837Z,28.47
2022-08-05T11:59:25.561Z,28.42
2022-08-05T12:04:38.233Z,28.43
2022-08-05T12:09:53.503Z,28.45
2022-08-05T12:14:55.273Z,28.33
2022-08-05T12:20:17.024Z,28.35
2022-08-05T12:25:20.097Z,28.31
2022-08-05T12:30:32.091Z,28.33
2022-08-05T12:35:39.739Z,28.29
2022-08-05T12:40:43.523Z,28.38
2022-08-05T12:45:55.951Z,28.34
2022-08-05T12:52:10.255Z,28.28
2022-08-05T12:56:41.733Z,28.39
2022-08-05T13:02:03.464Z,28.36
2022-08-05T13:07:16.073Z,28.29
2022-08-05T13:12:19.713Z,28.27
2022-08-05T13:17:31.949Z,28.26
2022-08-05T13:22:46.667Z,28.25
2022-08-05T13:27:50.616Z,28.14
2022-08-05T13:32:52.545Z,28.23
2022-08-05T13:37:57.865Z,28.26
2022-08-05T13:43:06.497Z,28.21
2022-08-05T13:49:00.292Z,28.19
2022-08-05T13:53:35.147Z,28.27
2022-08-05T13:58:53.144Z,28.27
2022-08-05T14:04:13.818Z,28.24
2022-08-05T14:09:16.173Z,28.31
2022-08-05T14:14:23.315Z,28.34
2022-08-05T14:19:27.534Z,28.38
2022-08-05T14:24:30.556Z,28.29
2022-08-05T14:29:32.665Z,28.35
2022-08-05T14:34:35.830Z,28.38
2022-08-05T14:39:49.266Z,28.37
2022-08-05T14:44:51.825Z,28.34
2022-08-05T14:49:59.157Z,28.36
2022-08-05T14:55:02.157Z,28.42
2022-08-05T15:00:04.086Z,28.38
2022-08-05T15:05:13.175Z,28.36
2022-08-05T15:10:14.861Z,28.36
2022-08-05T15:15:16.622Z,28.38
2022-08-05T15:20:19.314Z,28.43
2022-08-05T15:25:40.969Z,28.34
2022-08-05T15:30:47.689Z,28.38
2022-08-05T15:35:54.538Z,28.33
2022-08-05T15:41:23.261Z,28.39
2022-08-05T15:46:20.444Z,28.45
2022-08-05T15:52:09.950Z,28.42
2022-08-05T15:56:47.697Z,28.41
2022-08-05T16:01:52.247Z,28.41
2022-08-05T16:06:55.788Z,28.44
2022-08-05T16:11:57.469Z,28.45
2022-08-05T16:16:58.993Z,28.46
2022-08-05T16:22:03.414Z,28.41
2022-08-05T16:27:05.130Z,28.48
2022-08-05T16:32:09.751Z,28.45
2022-08-05T16:38:03.236Z,28.60
2022-08-05T16:42:34.411Z,28.42
2022-08-05T16:47:48.446Z,28.39
2022-08-05T16:52:57.044Z,28.37
2022-08-05T16:58:01.356Z,28.46
2022-08-05T17:03:15.237Z,28.45
2022-08-05T17:08:36.134Z,28.46
2022-08-05T17:13:44.436Z,28.43
2022-08-05T17:18:46.526Z,28.40
2022-08-05T17:24:04.327Z,28.38
2022-08-05T17:29:11.438Z,28.45
2022-08-05T17:34:12.854Z,28.44
2022-08-05T17:39:24.509Z,28.43
2022-08-05T17:44:35.921Z,28.44
2022-08-05T17:49:51.982Z,28.42
2022-08-05T17:54:58.932Z,28.42
2022-08-05T18:00:05.418Z,28.42
2022-08-05T18:05:08.182Z,28.34
2022-08-05T18:10:11.318Z,28.31
2022-08-05T18:15:13.057Z,28.36
2022-08-05T18:20:15.388Z,28.29
2022-08-05T18:25:17.557Z,28.31
2022-08-05T18:30:19.652Z,28.30
2022-08-05T18:35:21.125Z,28.39
2022-08-05T18:41:56.779Z,28.39
2022-08-05T18:46:04.258Z,28.39
2022-08-05T18:52:04.929Z,28.35
2022-08-05T18:56:51.221Z,28.31
2022-08-05T19:01:56.983Z,28.22
2022-08-05T19:06:59.977Z,28.22
2022-08-05T19:12:01.759Z,28.27
2022-08-05T19:17:03.188Z,28.25
2022-08-05T19:22:09.183Z,28.28
2022-08-05T19:27:12.181Z,28.21
2022-08-05T19:32:14.889Z,28.22
2022-08-05T19:37:17.200Z,28.26
2022-08-05T19:42:19.057Z,28.13
2022-08-05T19:47:37.630Z,28.24
2022-08-05T19:52:39.413Z,28.24
2022-08-05T19:57:49.216Z,28.29
2022-08-05T20:03:08.463Z,28.23
2022-08-05T20:08:10.749Z,28.20
2022-08-05T20:13:12.184Z,28.16
2022-08-05T20:18:33.156Z,28.17
2022-08-05T20:23:40.384Z,28.16
2022-08-05T20:28:55.838Z,28.11
2022-08-05T20:33:57.599Z,28.17
2022-08-05T20:38:59.162Z,28.19
2022-08-05T20:44:17.888Z,28.23
2022-08-05T20:49:24.437Z,28.17
2022-08-05T20:54:43.127Z,28.15
2022-08-05T21:00:19.783Z,28.15
2022-08-05T21:05:11.186Z,28.15
2022-08-05T21:10:13.792Z,28.05
2022-08-05T21:15:16.170Z,28.09
2022-08-05T21:20:33.168Z,28.11
2022-08-05T21:25:35.158Z,28.14
2022-08-05T21:30:38.101Z,28.12
2022-08-05T21:35:55.617Z,28.12
2022-08-05T21:41:00.493Z,28.06
2022-08-05T21:46:01.905Z,27.90
2022-08-05T21:52:16.257Z,27.87
2022-08-05T21:56:27.040Z,27.75
2022-08-05T22:01:28.606Z,27.70
2022-08-05T22:06:39.657Z,27.68
2022-08-05T22:11:41.289Z,27.69
2022-08-05T22:16:51.301Z,27.70
2022-08-05T22:21:54.261Z,27.65
2022-08-05T22:27:17.278Z,27.61
2022-08-05T22:32:19.065Z,27.65
2022-08-05T22:37:20.826Z,27.65
2022-08-05T22:42:26.085Z,27.63
2022-08-05T22:47:30.674Z,27.63
2022-08-05T22:52:34.303Z,27.60
2022-08-05T22:57:36.453Z,27.58
2022-08-05T23:02:46.494Z,27.56
2022-08-05T23:07:49.664Z,27.57
2022-08-05T23:12:54.679Z,27.60
2022-08-05T23:18:01.671Z,27.56
2022-08-05T23:23:08.062Z,27.49
2022-08-05T23:28:10.158Z,27.50
2022-08-05T23:33:16.022Z,27.49
2022-08-05T23:38:20.461Z,27.51
2022-08-05T23:43:24.827Z,27.49
2022-08-05T23:48:38.994Z,27.47
2022-08-05T23:53:47.047Z,27.45
2022-08-05T23:58:48.576Z,27.45
